Time;durP1;ratioP1;P1;durP2;ratioP2;P2;SDS_P1;SDS_P2;PMS_P1;PMS_P2;Temp;Humidity;BMP_temperature;BMP_pressure;BME280_temperature;BME280_humidity;BME280_pressure;Samples;Min_cycle;Max_cycle;Signal;HPM_P1;HPM_P2
2023/09/11 00:00:14;;;;;;;9.20;6.80;;;;;;;12.26;67.40;101109.83;107989;1254;72664;-71
2023/09/11 00:02:40;;;;;;;12.20;6.60;;;;;;;12.25;67.57;101107.91;108076;1256;62063;-71
2023/09/11 00:05:08;;;;;;;10.30;7.10;;;;;;;12.25;67.56;101106.04;108131;1253;60421;-72
2023/09/11 00:07:34;;;;;;;10.40;7.20;;;;;;;12.24;67.61;101103.45;108053;1254;73592;-72
2023/09/11 00:10:01;;;;;;;9.70;6.50;;;;;;;12.24;67.54;101107.23;108132;1254;72737;-73
2023/09/11 00:12:28;;;;;;;10.00;6.40;;;;;;;12.22;67.40;101101.55;108190;1253;73225;-71
2023/09/11 00:14:55;;;;;;;9.60;6.70;;;;;;;12.18;67.57;101101.58;108140;1253;61089;-71
2023/09/11 00:17:22;;;;;;;9.10;6.30;;;;;;;12.20;67.61;101101.63;108110;1254;60733;-71
2023/09/11 00:19:49;;;;;;;10.90;6.60;;;;;;;12.18;67.59;101102.11;108163;1253;72983;-74
2023/09/11 00:22:16;;;;;;;8.20;6.30;;;;;;;12.22;67.47;101099.89;108176;1253;72672;-73
2023/09/11 00:24:43;;;;;;;9.70;6.60;;;;;;;12.16;67.66;101098.13;108178;1256;73517;-73
2023/09/11 00:27:10;;;;;;;10.10;6.40;;;;;;;12.18;67.80;101097.38;108125;1253;61874;-74
2023/09/11 00:29:36;;;;;;;9.30;6.40;;;;;;;12.18;67.90;101095.63;108140;1253;60364;-74
2023/09/11 00:32:04;;;;;;;9.20;6.70;;;;;;;12.23;68.00;101097.11;108140;1254;74298;-72
2023/09/11 00:34:31;;;;;;;10.00;6.70;;;;;;;12.25;67.90;101096.27;108112;1252;73201;-73
2023/09/11 00:36:58;;;;;;;11.50;6.30;;;;;;;12.27;67.90;101098.15;108170;1253;73354;-74
2023/09/11 00:39:25;;;;;;;10.90;6.50;;;;;;;12.21;67.95;101095.71;108135;1254;61691;-73
2023/09/11 00:41:52;;;;;;;9.10;6.50;;;;;;;12.11;68.11;101089.61;108223;1253;60490;-74
2023/09/11 00:44:19;;;;;;;8.20;6.00;;;;;;;12.10;68.20;101092.23;108170;1256;73710;-72
2023/09/11 00:46:46;;;;;;;11.30;6.60;;;;;;;12.05;68.23;101087.41;108013;1254;71137;-73
2023/09/11 00:49:12;;;;;;;9.90;6.50;;;;;;;12.04;68.31;101084.19;108049;1254;72774;-71
2023/09/11 00:51:39;;;;;;;10.40;6.10;;;;;;;12.02;68.35;101082.40;108047;1253;61704;-72
2023/09/11 00:54:06;;;;;;;8.70;6.00;;;;;;;11.94;68.49;101078.39;108251;1253;60326;-72
2023/09/11 00:56:33;;;;;;;9.00;6.40;;;;;;;11.89;68.73;101079.98;108034;1254;72817;-73
2023/09/11 00:59:00;;;;;;;10.40;6.20;;;;;;;11.90;68.97;101078.43;108195;1254;72488;-74
2023/09/11 01:01:27;;;;;;;8.90;6.20;;;;;;;11.91;69.11;101078.30;107990;1254;72872;-72
2023/09/11 01:03:54;;;;;;;7.90;5.60;;;;;;;11.92;68.87;101079.37;107851;1258;64712;-74
2023/09/11 01:06:21;;;;;;;9.40;6.10;;;;;;;11.88;68.91;101075.36;107969;1259;60514;-73
2023/09/11 01:08:51;;;;;;;9.50;6.00;;;;;;;11.82;68.88;101076.79;108256;1254;73840;-71
2023/09/11 01:11:20;;;;;;;10.30;6.80;;;;;;;11.81;68.99;101074.63;108045;1259;72704;-72
2023/09/11 01:13:47;;;;;;;11.00;6.10;;;;;;;11.84;69.31;101074.84;107972;1254;72668;-72
2023/09/11 01:16:37;;;;;;;9.60;6.10;;;;;;;11.84;69.25;101076.11;108068;1253;61936;-72
2023/09/11 01:19:09;;;;;;;7.40;5.50;;;;;;;11.80;69.28;101072.20;108000;1254;59312;-73
2023/09/11 01:21:39;;;;;;;9.80;5.70;;;;;;;11.77;69.48;101069.86;108039;1254;72439;-74
2023/09/11 01:24:18;;;;;;;9.00;5.60;;;;;;;11.78;69.46;101064.80;108170;1254;71610;-72
2023/09/11 01:27:13;;;;;;;8.00;5.70;;;;;;;11.83;69.49;101065.65;108013;1254;72505;-73
2023/09/11 01:29:41;;;;;;;8.80;5.70;;;;;;;11.85;69.49;101067.42;108184;1254;60716;-73
2023/09/11 01:32:08;;;;;;;8.10;5.70;;;;;;;11.88;69.49;101065.90;108075;1253;60466;-72
2023/09/11 01:34:35;;;;;;;9.90;5.80;;;;;;;11.88;69.34;101060.70;108214;1256;72574;-73
2023/09/11 01:37:02;;;;;;;8.60;5.20;;;;;;;11.88;69.53;101055.56;108203;1256;72182;-72
2023/09/11 01:39:29;;;;;;;8.80;5.40;;;;;;;11.91;69.53;101054.26;108169;1253;72741;-72
2023/09/11 01:42:00;;;;;;;7.00;5.30;;;;;;;11.94;69.53;101055.45;108143;1254;61903;-72
2023/09/11 01:44:32;;;;;;;9.80;5.40;;;;;;;11.95;69.47;101056.81;107884;1253;60552;-73
2023/09/11 01:46:59;;;;;;;;;;;;;;;11.97;69.35;101057.58;107991;1253;72799;-73
2023/09/11 01:49:26;;;;;;;9.30;5.50;;;;;;;11.99;69.30;101053.36;108198;1254;72598;-73
2023/09/11 01:51:53;;;;;;;7.00;5.20;;;;;;;12.00;69.10;101054.48;107927;1254;71440;-74
2023/09/11 01:54:20;;;;;;;6.70;5.00;;;;;;;12.00;69.07;101053.26;107903;1253;61887;-72
2023/09/11 01:56:47;;;;;;;7.90;5.40;;;;;;;12.00;68.98;101049.40;107888;1253;60394;-73
2023/09/11 01:59:17;;;;;;;7.60;5.60;;;;;;;12.00;68.91;101050.47;108051;1254;73647;-73
2023/09/11 02:01:44;;;;;;;7.80;5.20;;;;;;;11.99;68.73;101051.11;107971;1254;72730;-74
2023/09/11 02:04:11;;;;;;;8.40;5.60;;;;;;;11.96;68.69;101046.96;108062;1254;72698;-72
2023/09/11 02:06:38;;;;;;;8.20;5.30;;;;;;;11.96;68.57;101049.10;108006;1253;61781;-72
2023/09/11 02:09:05;;;;;;;7.60;5.40;;;;;;;11.95;68.56;101049.21;108063;1253;60299;-72
2023/09/11 02:11:33;;;;;;;7.40;5.20;;;;;;;11.94;68.40;101047.75;107986;1254;73660;-72
2023/09/11 02:14:00;;;;;;;9.20;5.80;;;;;;;11.93;68.38;101042.76;108103;1254;72498;-72
2023/09/11 02:16:29;;;;;;;7.60;5.30;;;;;;;11.91;68.35;101040.50;108254;1253;72509;-70
2023/09/11 02:18:56;;;;;;;8.50;5.60;;;;;;;11.90;68.31;101037.38;108122;1254;63612;-71
2023/09/11 02:21:23;;;;;;;7.60;5.30;;;;;;;11.85;68.41;101038.88;108262;1254;60347;-72
2023/09/11 02:23:50;;;;;;;9.90;5.50;;;;;;;11.83;68.23;101031.08;108273;1256;73571;-70
2023/09/11 02:26:17;;;;;;;8.20;5.70;;;;;;;11.81;68.31;101031.36;108096;1253;72769;-70
2023/09/11 02:28:44;;;;;;;8.10;5.40;;;;;;;11.78;68.32;101032.15;107944;1254;73663;-71
2023/09/11 02:31:11;;;;;;;8.80;5.60;;;;;;;11.79;68.39;101029.42;108015;1254;60593;-71
2023/09/11 02:33:38;;;;;;;8.10;5.50;;;;;;;11.80;68.52;101028.09;108184;1254;62814;-71
2023/09/11 02:36:05;;;;;;;7.60;5.30;;;;;;;11.82;68.43;101030.84;107988;1254;74382;-72
2023/09/11 02:38:32;;;;;;;10.40;5.60;;;;;;;11.83;68.46;101031.77;108140;1253;73272;-73
2023/09/11 02:41:00;;;;;;;10.00;6.30;;;;;;;11.85;68.23;101035.14;107990;1256;73389;-72
2023/09/11 02:43:36;;;;;;;7.10;5.10;;;;;;;11.73;68.42;101033.88;108101;1254;61790;-71
2023/09/11 02:46:03;;;;;;;7.30;5.40;;;;;;;11.47;68.93;101038.47;108196;1254;60379;-72
2023/09/11 02:48:31;;;;;;;8.70;5.40;;;;;;;11.40;69.42;101040.85;108219;1253;74319;-72
2023/09/11 02:50:59;;;;;;;8.90;5.70;;;;;;;11.49;69.36;101044.68;108256;1256;72581;-71
2023/09/11 02:53:26;;;;;;;8.50;5.50;;;;;;;11.66;68.88;101044.17;108013;1257;73248;-73
2023/09/11 02:55:53;;;;;;;7.40;5.40;;;;;;;11.69;68.93;101046.13;108166;1254;61812;-72
2023/09/11 02:58:20;;;;;;;10.00;5.70;;;;;;;11.71;69.04;101048.83;108163;1253;60315;-71
2023/09/11 03:00:47;;;;;;;7.80;5.10;;;;;;;11.69;69.15;101047.64;108093;1254;74252;-72
2023/09/11 03:03:14;;;;;;;9.30;5.60;;;;;;;11.67;69.11;101047.17;108218;1254;73616;-72
2023/09/11 03:05:41;;;;;;;8.10;5.60;;;;;;;11.66;69.26;101046.16;108204;1252;70503;-73
2023/09/11 03:08:08;;;;;;;9.00;5.60;;;;;;;11.64;69.26;101047.70;108071;1256;60399;-72
2023/09/11 03:10:35;;;;;;;7.10;5.10;;;;;;;11.61;69.26;101047.54;107961;1254;60322;-71
2023/09/11 03:13:03;;;;;;;9.10;6.20;;;;;;;11.61;69.28;101046.58;108000;1254;71499;-70
2023/09/11 03:15:30;;;;;;;8.70;6.10;;;;;;;11.61;69.26;101046.58;108257;1254;72614;-72
2023/09/11 03:17:57;;;;;;;8.30;5.30;;;;;;;11.61;69.24;101043.95;108115;1254;73000;-72
2023/09/11 03:20:25;;;;;;;9.20;5.70;;;;;;;11.62;69.40;101043.91;108078;1253;60482;-71
2023/09/11 03:22:53;;;;;;;7.80;5.50;;;;;;;11.64;69.42;101044.85;108060;1254;60142;-71
2023/09/11 03:25:21;;;;;;;7.20;5.00;;;;;;;11.66;69.35;101043.65;107991;1253;73597;-71
2023/09/11 03:27:48;;;;;;;7.20;5.20;;;;;;;11.68;69.28;101043.23;108033;1253;73115;-71
2023/09/11 03:30:15;;;;;;;8.40;5.60;;;;;;;11.70;69.18;101042.19;107997;1254;72497;-72
2023/09/11 03:32:41;;;;;;;8.40;5.30;;;;;;;11.72;69.19;101041.31;108828;1254;60588;-72
2023/09/11 03:35:09;;;;;;;7.10;4.70;;;;;;;11.75;69.10;101038.00;108426;1253;60408;-71
2023/09/11 03:37:36;;;;;;;9.00;4.90;;;;;;;11.76;68.93;101039.95;108049;1256;74112;-69
2023/09/11 03:40:07;;;;;;;6.50;4.70;;;;;;;11.73;68.95;101036.00;108304;1256;72692;-70
2023/09/11 03:42:34;;;;;;;5.90;4.70;;;;;;;11.70;68.87;101038.97;108084;1254;72742;-69
2023/09/11 03:45:02;;;;;;;7.60;5.10;;;;;;;11.70;68.85;101041.75;108163;1254;60289;-70
2023/09/11 03:47:29;;;;;;;9.00;5.20;;;;;;;11.65;69.10;101041.76;108069;1254;60313;-71
2023/09/11 03:49:56;;;;;;;8.60;5.80;;;;;;;11.71;69.00;101041.23;108083;1254;72407;-70
2023/09/11 03:52:23;;;;;;;7.50;5.40;;;;;;;11.69;69.12;101042.87;108148;1253;72553;-73
2023/09/11 03:54:50;;;;;;;9.40;6.20;;;;;;;11.64;69.27;101039.77;108033;1259;72475;-70
2023/09/11 03:57:17;;;;;;;9.20;6.30;;;;;;;11.61;69.55;101038.39;108202;1254;61938;-70
2023/09/11 03:59:47;;;;;;;7.30;5.70;;;;;;;11.61;69.65;101033.89;108017;1254;61817;-71
2023/09/11 04:02:15;;;;;;;9.20;6.40;;;;;;;11.61;69.75;101038.30;108182;1254;72583;-72
2023/09/11 04:04:41;;;;;;;9.60;6.70;;;;;;;11.60;69.87;101039.35;108180;1256;73591;-71
2023/09/11 04:07:08;;;;;;;10.00;7.00;;;;;;;11.61;69.99;101040.70;108021;1254;72551;-71
2023/09/11 04:09:35;;;;;;;9.60;7.20;;;;;;;11.65;70.02;101036.79;108126;1254;61688;-70
2023/09/11 04:12:04;;;;;;;8.90;7.20;;;;;;;11.73;70.23;101034.93;108138;1254;60267;-70
2023/09/11 04:14:31;;;;;;;10.50;7.30;;;;;;;11.82;70.34;101036.15;108619;1254;72451;-71
2023/09/11 04:16:58;;;;;;;8.30;6.40;;;;;;;11.90;70.45;101037.49;108000;1254;71768;-72
2023/09/11 04:19:25;;;;;;;9.20;6.00;;;;;;;11.92;70.31;101040.77;108159;1253;72459;-72
2023/09/11 04:21:52;;;;;;;9.60;6.70;;;;;;;11.92;70.47;101042.43;108197;1254;61921;-72
2023/09/11 04:24:19;;;;;;;8.20;6.80;;;;;;;11.91;70.65;101044.67;107973;1254;60322;-72
2023/09/11 04:26:46;;;;;;;9.20;6.90;;;;;;;11.96;70.77;101041.77;108012;1254;74274;-69
2023/09/11 04:29:13;;;;;;;10.90;7.10;;;;;;;12.03;70.96;101047.19;108098;1253;72603;-69
2023/09/11 04:31:41;;;;;;;10.00;6.90;;;;;;;12.11;71.12;101047.88;108317;1253;72658;-70
2023/09/11 04:34:25;;;;;;;9.70;7.00;;;;;;;12.20;71.37;101049.73;107883;1254;60689;-70
2023/09/11 04:36:54;;;;;;;10.00;7.00;;;;;;;12.34;71.68;101044.60;107816;1253;60208;-69
2023/09/11 04:39:22;;;;;;;9.50;6.40;;;;;;;12.47;71.91;101040.58;107871;1254;72444;-70
2023/09/11 04:41:49;;;;;;;10.10;6.70;;;;;;;12.56;72.03;101041.00;107834;1254;72552;-71
2023/09/11 04:44:16;;;;;;;10.20;7.40;;;;;;;12.66;72.32;101042.20;107776;1253;72566;-71
2023/09/11 04:46:45;;;;;;;14.00;8.30;;;;;;;12.79;72.39;101038.56;107941;1254;61779;-71
2023/09/11 04:49:11;;;;;;;12.40;9.00;;;;;;;12.97;72.61;101038.71;108001;1259;60297;-70
2023/09/11 04:51:39;;;;;;;13.60;8.80;;;;;;;13.14;72.44;101038.84;108236;1253;74450;-70
2023/09/11 04:54:05;;;;;;;11.60;8.40;;;;;;;13.24;72.42;101031.23;108066;1256;71404;-69
2023/09/11 04:56:32;;;;;;;12.70;8.30;;;;;;;13.30;72.62;101031.06;107898;1259;73085;-69
2023/09/11 04:58:59;;;;;;;11.70;8.00;;;;;;;13.38;72.78;101021.52;107947;1254;60301;-69
2023/09/11 05:01:26;;;;;;;14.10;8.90;;;;;;;13.51;73.02;101019.41;108043;1254;60590;-70
2023/09/11 05:03:53;;;;;;;12.90;8.40;;;;;;;13.68;73.06;101019.17;108013;1253;73560;-70
2023/09/11 05:06:21;;;;;;;17.40;8.50;;;;;;;13.84;73.19;101021.45;108044;1254;72624;-69
2023/09/11 05:08:48;;;;;;;13.30;9.00;;;;;;;14.01;73.32;101016.84;107909;1254;72294;-69
2023/09/11 05:11:35;;;;;;;11.80;8.00;;;;;;;14.21;73.27;101012.21;108059;1253;62048;-68
2023/09/11 05:14:04;;;;;;;11.40;8.10;;;;;;;14.37;73.20;101010.54;107996;1254;60539;-69
2023/09/11 05:16:31;;;;;;;9.60;6.70;;;;;;;14.51;73.26;101010.27;108049;1254;73739;-69
2023/09/11 05:18:58;;;;;;;9.80;6.90;;;;;;;14.67;73.20;101011.52;108172;1254;71389;-70
2023/09/11 05:21:25;;;;;;;8.90;7.10;;;;;;;14.82;72.99;101011.86;108156;1254;72554;-71
2023/09/11 05:23:52;;;;;;;8.30;6.80;;;;;;;14.95;72.83;101009.61;108182;1256;62091;-72
2023/09/11 05:26:19;;;;;;;9.30;7.10;;;;;;;15.05;72.90;101009.73;108228;1254;60428;-71
2023/09/11 05:28:46;;;;;;;10.50;7.20;;;;;;;15.12;73.08;101009.44;108133;1254;74762;-71
2023/09/11 05:31:16;;;;;;;9.70;7.10;;;;;;;15.23;73.11;101006.42;108017;1254;73422;-72
2023/09/11 05:33:43;;;;;;;10.30;7.30;;;;;;;15.39;73.13;101006.98;108035;1254;73376;-72
2023/09/11 05:36:11;;;;;;;11.70;7.40;;;;;;;15.56;73.17;101009.03;108042;1255;61996;-71
2023/09/11 05:38:38;;;;;;;8.90;6.70;;;;;;;15.75;73.03;101008.55;107971;1259;61728;-73
2023/09/11 05:41:06;;;;;;;8.80;6.60;;;;;;;15.93;72.89;101008.11;108035;1255;71416;-72
2023/09/11 05:43:33;;;;;;;10.00;7.10;;;;;;;16.06;72.58;101010.26;108075;1254;72520;-72
2023/09/11 05:46:00;;;;;;;8.00;6.70;;;;;;;16.21;72.20;101008.02;107908;1253;73141;-72
2023/09/11 05:48:27;;;;;;;8.30;6.10;;;;;;;16.34;71.79;101010.77;108085;1255;61776;-73
2023/09/11 05:50:54;;;;;;;10.40;7.00;;;;;;;16.45;70.81;101011.21;108034;1255;60264;-73
2023/09/11 05:53:20;;;;;;;12.00;7.00;;;;;;;16.49;69.97;101008.84;108101;1254;73975;-73
2023/09/11 05:55:47;;;;;;;8.40;6.20;;;;;;;16.57;69.42;101009.95;108258;1256;72745;-74
2023/09/11 05:58:14;;;;;;;8.30;5.80;;;;;;;16.76;68.45;101004.73;108178;1254;73721;-73
2023/09/11 06:00:42;;;;;;;8.40;5.60;;;;;;;16.91;65.71;101001.39;108077;1254;60545;-74
2023/09/11 06:03:09;;;;;;;8.20;6.00;;;;;;;16.94;64.01;100997.04;108053;1254;60367;-74
2023/09/11 06:05:36;;;;;;;8.30;6.10;;;;;;;16.99;63.39;100998.27;108055;1256;74854;-75
2023/09/11 06:08:04;;;;;;;8.90;6.10;;;;;;;17.09;62.18;100998.84;108112;1254;73234;-73
2023/09/11 06:10:30;;;;;;;7.80;5.80;;;;;;;17.13;61.66;100997.77;108145;1254;72433;-74
2023/09/11 06:12:57;;;;;;;8.60;5.90;;;;;;;17.26;61.18;101001.27;108118;1254;59455;-74
2023/09/11 06:15:25;;;;;;;9.00;5.70;;;;;;;17.43;60.58;100996.34;108094;1255;60425;-74
2023/09/11 06:17:51;;;;;;;9.30;5.90;;;;;;;17.61;60.17;100993.92;108127;1255;73722;-74
2023/09/11 06:31:51;;;;;;;8.70;6.00;;;;;;;18.34;55.89;100992.71;105468;1284;613840;-73
2023/09/11 06:34:19;;;;;;;7.30;5.20;;;;;;;18.86;53.67;100992.16;106984;1267;157774;-73
2023/09/11 06:36:46;;;;;;;8.00;5.10;;;;;;;18.99;53.04;100989.33;107215;1267;59553;-72
2023/09/11 06:39:15;;;;;;;7.70;5.30;;;;;;;19.12;52.50;100992.11;107488;1260;70754;-73
2023/09/11 06:41:45;;;;;;;6.60;4.90;;;;;;;19.24;52.00;100996.94;107610;1260;72828;-72
2023/09/11 06:44:16;;;;;;;7.90;4.70;;;;;;;19.35;51.72;100994.46;107609;1264;72624;-73
2023/09/11 06:46:43;;;;;;;6.90;4.80;;;;;;;19.46;51.35;100994.27;107561;1260;60148;-72
2023/09/11 06:49:11;;;;;;;6.10;4.50;;;;;;;19.54;50.94;100995.30;107671;1260;59976;-73
2023/09/11 06:51:38;;;;;;;7.00;4.50;;;;;;;19.55;50.06;100999.33;107430;1260;72082;-73
2023/09/11 06:54:09;;;;;;;8.50;4.50;;;;;;;19.54;49.74;100995.17;107632;1260;71926;-73
2023/09/11 06:56:37;;;;;;;5.80;4.00;;;;;;;19.61;49.73;100995.52;107447;1261;73687;-73
2023/09/11 06:59:05;;;;;;;6.90;4.70;;;;;;;19.66;49.02;100992.36;107400;1260;60013;-73
2023/09/11 07:01:38;;;;;;;7.70;4.50;;;;;;;19.72;49.01;100990.23;107623;1259;60326;-74
2023/09/11 07:04:10;;;;;;;7.20;4.10;;;;;;;19.82;49.11;100984.24;107479;1259;71759;-73
2023/09/11 07:06:40;;;;;;;10.00;4.90;;;;;;;19.96;49.20;100985.52;107545;1260;72498;-73
2023/09/11 07:09:08;;;;;;;6.20;4.40;;;;;;;20.06;48.89;100984.02;107472;1259;72761;-73
2023/09/11 07:11:35;;;;;;;8.30;4.80;;;;;;;20.17;48.67;100983.85;107805;1262;59660;-72
2023/09/11 07:14:05;;;;;;;6.20;4.50;;;;;;;20.34;48.47;100981.67;107522;1260;59869;-72
2023/09/11 07:16:37;;;;;;;6.10;4.20;;;;;;;20.50;48.15;100981.53;107498;1259;71726;-73
2023/09/11 07:19:05;;;;;;;6.40;4.20;;;;;;;20.65;48.13;100983.61;107492;1260;72963;-73
2023/09/11 07:21:32;;;;;;;8.90;3.90;;;;;;;20.81;48.14;100982.13;107562;1260;73867;-73
2023/09/11 07:24:00;;;;;;;5.90;3.60;;;;;;;20.96;46.95;100983.50;107618;1260;61339;-73
2023/09/11 07:26:28;;;;;;;6.00;3.30;;;;;;;21.04;46.12;100981.57;107579;1260;59094;-72
2023/09/11 07:28:57;;;;;;;4.80;3.20;;;;;;;21.15;44.93;100979.25;107620;1260;73103;-73
2023/09/11 07:31:24;;;;;;;5.90;3.60;;;;;;;21.21;44.04;100978.34;107514;1259;71145;-73
2023/09/11 07:33:52;;;;;;;5.40;3.50;;;;;;;21.21;44.49;100974.27;107747;1257;71270;-73
2023/09/11 07:36:20;;;;;;;6.20;3.70;;;;;;;21.26;44.90;100977.22;107704;1257;59623;-74
2023/09/11 07:38:48;;;;;;;6.30;3.10;;;;;;;21.38;45.05;100976.33;107547;1257;59736;-74
2023/09/11 07:41:17;;;;;;;4.20;2.80;;;;;;;21.52;44.31;100975.21;107628;1259;71816;-72
2023/09/11 07:43:49;;;;;;;5.30;2.90;;;;;;;21.64;42.70;100980.90;107758;1257;71503;-74
2023/09/11 07:46:26;;;;;;;3.70;2.30;;;;;;;21.71;41.93;100973.73;107520;1257;72803;-73
2023/09/11 07:48:54;;;;;;;5.50;3.20;;;;;;;21.76;41.71;100966.88;107693;1257;60970;-74
2023/09/11 07:51:26;;;;;;;4.60;3.10;;;;;;;21.74;42.03;100965.40;107713;1256;59509;-73
2023/09/11 07:53:53;;;;;;;5.30;3.30;;;;;;;21.79;42.28;100966.48;107762;1257;73052;-74
2023/09/11 07:56:21;;;;;;;5.20;3.50;;;;;;;21.95;42.39;100966.16;107744;1257;72444;-73
2023/09/11 07:58:50;;;;;;;4.30;2.50;;;;;;;22.06;42.09;100960.85;107656;1256;71834;-73
2023/09/11 08:01:25;;;;;;;4.40;2.60;;;;;;;22.18;42.04;100962.80;107748;1257;59486;-72
2023/09/11 08:03:54;;;;;;;4.30;2.30;;;;;;;22.30;41.06;100961.92;107789;1256;60141;-74
2023/09/11 08:06:25;;;;;;;4.20;2.20;;;;;;;22.38;41.17;100958.46;107773;1256;72338;-73
2023/09/11 08:08:56;;;;;;;3.90;2.00;;;;;;;22.52;40.96;100956.77;107618;1256;75092;-73
2023/09/11 08:11:26;;;;;;;3.20;1.90;;;;;;;22.68;41.09;100954.55;107602;1257;72747;-73
2023/09/11 08:13:56;;;;;;;4.10;2.10;;;;;;;22.88;40.47;100956.19;107556;1256;59421;-73
2023/09/11 08:16:24;;;;;;;6.60;2.00;;;;;;;23.04;40.10;100957.58;107951;1261;60183;-72
2023/09/11 08:18:51;;;;;;;3.00;1.80;;;;;;;23.20;40.02;100953.75;108000;1257;71831;-72
2023/09/11 08:21:21;;;;;;;4.90;1.70;;;;;;;23.29;39.63;100954.80;107639;1257;71588;-73
2023/09/11 08:23:49;;;;;;;5.40;1.80;;;;;;;23.44;39.31;100952.98;107858;1256;72766;-72
2023/09/11 08:26:17;;;;;;;3.90;1.60;;;;;;;23.55;38.94;100949.51;107652;1256;59585;-73
2023/09/11 08:28:44;;;;;;;4.70;1.60;;;;;;;23.65;37.20;100946.69;107826;1257;59631;-73
2023/09/11 08:31:12;;;;;;;2.70;1.60;;;;;;;23.66;36.62;100949.02;108232;1257;72469;-73
2023/09/11 08:33:40;;;;;;;5.00;1.80;;;;;;;23.71;37.06;100945.46;107869;1256;71461;-73
2023/09/11 08:36:15;;;;;;;2.60;1.60;;;;;;;23.95;37.18;100938.92;107803;1256;73162;-73
2023/09/11 08:38:47;;;;;;;3.90;1.70;;;;;;;24.11;36.77;100940.13;107832;1259;59990;-73
2023/09/11 08:41:15;;;;;;;2.60;1.50;;;;;;;24.22;36.55;100943.69;107621;1258;59661;-72
2023/09/11 08:43:44;;;;;;;3.90;1.90;;;;;;;24.32;36.66;100943.43;107743;1256;71189;-72
2023/09/11 08:46:14;;;;;;;3.20;1.50;;;;;;;24.39;36.61;100943.18;107778;1257;72697;-72
2023/09/11 08:48:43;;;;;;;4.70;1.90;;;;;;;24.36;36.63;100936.90;107721;1256;71554;-72
2023/09/11 08:51:16;;;;;;;2.40;1.40;;;;;;;24.35;36.71;100932.44;108074;1258;59501;-73
2023/09/11 08:53:44;;;;;;;4.00;1.60;;;;;;;24.33;36.63;100930.95;107694;1258;59780;-73
2023/09/11 08:56:12;;;;;;;3.40;1.40;;;;;;;24.29;36.35;100927.80;107564;1256;73055;-73
2023/09/11 08:58:40;;;;;;;2.40;1.50;;;;;;;24.25;36.37;100926.88;107717;1256;72177;-73
2023/09/11 09:01:08;;;;;;;2.20;1.20;;;;;;;24.27;36.63;100923.83;107705;1256;72672;-73
2023/09/11 09:03:37;;;;;;;3.60;1.40;;;;;;;24.30;36.37;100922.36;107548;1262;59964;-74
2023/09/11 09:06:05;;;;;;;3.70;1.50;;;;;;;24.37;36.07;100918.70;107469;1256;61699;-73
2023/09/11 09:08:33;;;;;;;3.80;1.50;;;;;;;24.47;36.16;100908.42;107740;1256;71930;-73
2023/09/11 09:11:01;;;;;;;3.20;1.30;;;;;;;24.57;35.81;100908.43;107867;1257;72830;-73
2023/09/11 09:13:33;;;;;;;2.40;1.60;;;;;;;24.64;35.34;100902.95;107761;1257;73153;-73
2023/09/11 09:16:02;;;;;;;3.10;1.60;;;;;;;24.71;35.15;100894.09;107698;1256;59560;-74
2023/09/11 09:18:30;;;;;;;3.30;1.80;;;;;;;24.87;34.64;100887.29;107825;1256;60897;-73
2023/09/11 09:20:58;;;;;;;4.20;1.70;;;;;;;24.90;34.52;100884.09;107727;1257;73038;-74
2023/09/11 09:23:35;;;;;;;4.30;1.70;;;;;;;24.98;34.13;100882.17;107911;1256;73016;-73
2023/09/11 09:26:07;;;;;;;4.10;1.90;;;;;;;25.08;33.93;100883.52;107730;1259;72805;-73
2023/09/11 09:28:35;;;;;;;4.40;2.20;;;;;;;25.09;33.61;100880.77;107838;1256;60134;-73
2023/09/11 09:31:04;;;;;;;2.90;1.90;;;;;;;25.14;33.92;100878.10;107614;1262;60428;-73
2023/09/11 09:33:32;;;;;;;4.00;2.00;;;;;;;25.13;33.61;100878.40;107797;1256;73176;-73
2023/09/11 09:36:00;;;;;;;5.20;2.10;;;;;;;25.13;33.71;100881.61;107725;1256;71448;-73
2023/09/11 09:38:28;;;;;;;4.50;2.10;;;;;;;25.20;33.15;100880.58;107660;1256;73119;-73
2023/09/11 09:40:56;;;;;;;3.20;1.90;;;;;;;25.20;33.06;100877.51;107721;1256;60169;-73
2023/09/11 09:43:23;;;;;;;3.60;2.00;;;;;;;25.20;32.83;100873.11;108216;1256;60058;-71
2023/09/11 09:45:51;;;;;;;5.60;2.40;;;;;;;25.22;33.22;100867.64;107803;1257;73126;-72
2023/09/11 09:48:19;;;;;;;3.90;2.00;;;;;;;25.25;32.99;100866.88;107829;1256;72786;-72
2023/09/11 09:50:57;;;;;;;3.90;2.20;;;;;;;25.30;32.60;100863.80;107796;1256;72726;-72
2023/09/11 09:53:46;;;;;;;3.40;1.80;;;;;;;25.35;32.43;100861.34;107780;1256;59609;-72
2023/09/11 09:56:14;;;;;;;3.70;2.20;;;;;;;25.39;32.21;100859.90;107784;1256;59494;-72
2023/09/11 09:58:44;;;;;;;4.20;2.20;;;;;;;25.41;32.22;100857.77;107791;1256;72399;-71
2023/09/11 10:01:14;;;;;;;3.50;2.10;;;;;;;25.35;32.79;100855.95;107861;1256;74984;-73
2023/09/11 10:04:01;;;;;;;3.40;2.00;;;;;;;25.30;33.51;100859.03;107821;1256;72681;-73
2023/09/11 10:06:31;;;;;;;3.70;2.10;;;;;;;25.29;32.79;100854.71;107845;1256;60286;-73
2023/09/11 10:09:09;;;;;;;3.40;1.90;;;;;;;25.35;32.99;100847.21;107686;1256;59471;-74
2023/09/11 10:11:38;;;;;;;3.60;2.20;;;;;;;25.29;32.60;100847.90;107801;1256;71824;-73
2023/09/11 10:14:07;;;;;;;3.70;2.00;;;;;;;25.15;32.46;100842.38;107888;1256;71879;-73
2023/09/11 10:16:35;;;;;;;3.30;1.90;;;;;;;25.12;32.83;100841.10;107755;1256;72792;-74
2023/09/11 10:19:04;;;;;;;4.50;2.30;;;;;;;25.11;32.70;100842.70;107893;1260;60069;-72
2023/09/11 10:21:32;;;;;;;3.10;2.00;;;;;;;25.09;32.87;100840.30;107715;1256;60080;-72
2023/09/11 10:24:00;;;;;;;3.70;2.00;;;;;;;25.11;32.78;100838.19;107658;1256;73151;-74
2023/09/11 10:26:37;;;;;;;3.50;1.90;;;;;;;25.19;32.74;100839.27;108285;1256;72934;-73
2023/09/11 10:29:14;;;;;;;3.60;1.90;;;;;;;25.29;32.22;100837.90;107856;1256;71279;-74
2023/09/11 10:31:46;;;;;;;2.90;1.90;;;;;;;25.34;32.21;100833.36;107933;1259;60236;-72
2023/09/11 10:34:13;;;;;;;2.70;1.70;;;;;;;25.41;32.16;100827.13;107847;1256;60122;-72
2023/09/11 10:36:45;;;;;;;3.70;2.00;;;;;;;25.51;32.54;100825.21;107878;1256;73322;-72
2023/09/11 10:39:13;;;;;;;3.50;1.70;;;;;;;25.60;32.45;100825.68;107786;1256;75153;-73
2023/09/11 10:41:41;;;;;;;3.50;1.80;;;;;;;25.66;32.40;100821.21;107821;1256;73371;-73
2023/09/11 10:44:09;;;;;;;3.40;2.10;;;;;;;25.74;31.62;100820.30;107748;1260;60176;-74
2023/09/11 10:46:39;;;;;;;3.10;1.90;;;;;;;25.78;31.09;100819.77;107823;1256;59564;-73
2023/09/11 10:49:15;;;;;;;3.80;2.10;;;;;;;25.77;30.90;100823.28;107871;1256;73850;-73
2023/09/11 10:51:44;;;;;;;4.40;1.90;;;;;;;25.78;31.22;100821.41;107649;1260;71758;-73
2023/09/11 10:54:13;;;;;;;3.00;1.90;;;;;;;25.79;31.19;100815.66;107854;1256;74764;-73
2023/09/11 10:56:42;;;;;;;3.20;2.00;;;;;;;25.84;31.92;100810.97;107796;1257;60399;-73
2023/09/11 10:59:10;;;;;;;5.10;2.20;;;;;;;25.96;32.19;100801.16;107785;1256;60482;-73
2023/09/11 11:01:39;;;;;;;5.40;2.20;;;;;;;26.10;31.99;100799.38;107752;1256;72671;-73
2023/09/11 11:04:08;;;;;;;3.20;1.80;;;;;;;26.25;31.43;100793.77;107667;1256;75377;-73
2023/09/11 11:06:36;;;;;;;4.30;1.90;;;;;;;26.36;31.55;100793.77;107748;1257;72734;-72
2023/09/11 11:09:04;;;;;;;5.70;2.00;;;;;;;26.52;31.25;100797.34;108812;1256;59399;-73
2023/09/11 11:11:37;;;;;;;4.20;2.10;;;;;;;26.60;30.59;100791.87;107605;1256;61015;-72
2023/09/11 11:14:11;;;;;;;3.80;2.00;;;;;;;26.59;30.21;100790.91;107573;1256;72645;-72
2023/09/11 11:16:40;;;;;;;4.70;2.20;;;;;;;26.46;30.15;100787.90;107757;1256;72053;-72
2023/09/11 11:19:10;;;;;;;3.80;2.20;;;;;;;26.42;30.51;100783.25;107784;1257;71472;-72
2023/09/11 11:21:39;;;;;;;5.30;2.00;;;;;;;26.50;30.66;100777.17;107583;1257;60340;-75
2023/09/11 11:24:08;;;;;;;4.60;2.00;;;;;;;26.60;30.77;100777.64;107889;1256;60973;-73
2023/09/11 11:26:37;;;;;;;5.60;2.20;;;;;;;26.64;30.42;100775.20;107882;1256;72593;-72
2023/09/11 11:29:05;;;;;;;3.40;2.10;;;;;;;26.65;30.49;100768.41;108117;1256;71979;-72
2023/09/11 11:31:33;;;;;;;4.00;2.20;;;;;;;26.71;30.39;100766.81;107822;1256;71510;-72
2023/09/11 11:34:04;;;;;;;;;;;;;;;26.70;30.17;100764.52;108002;1256;59330;-72